首页
METAR-TAF:

METAR-TAF

机场 :

新奥尔良路易斯阿姆斯特朗国际机场

新奥尔良, 路易斯安那州, 美国

纬度: 29-59-34N, 经度: 090-15-03W, 海拔: 1米

当前天气观测

该预报发布于55分钟前的04:53 UTC
风速6节,风向
温度 14°C
湿度 63%
气压 1022 hPa
能見度: 16.1公里
天空无云

METAR: KMSY 240453Z 09006KT 10SM CLR 14/07 A3019 RMK AO2 SLP227 T01440072

时间: 23:48 (05:48 UTC)

预报

该预报发布于11分钟前的05:37 UTC
预报有效从24日的 06点(UTC)到 25日的 12点(UTC)
风速6节,风向
能見度: 10公里
天空无云
从 24日的 1800点(UTC)
风速9节,风向东南
能見度: 10公里
多云层高于10000英尺
从 24日的 2100点(UTC)
风速9节,风向东南
能見度: 10公里
阴天层高于5000英尺
从 25日的 0300点(UTC)
风速7节,风向东转东南
能見度: 10公里
阴天层高于2500英尺
从 25日的 0900点(UTC)
风速9节,风向南转南东
能見度: 10公里
阴天层高于5000英尺

TAF: KMSY 240537Z 2406/2512 09006KT P6SM SKC FM241800 14009KT P6SM BKN100 FM242100 13009KT P6SM OVC050 FM250300 12007KT P6SM OVC025 FM250900 16009KT P6SM OVC050

超过4000个机场的气象观测和天气预报(METAR&TAF报告)。

可查询的气象台以黄色和红色小点在地图上表示。

将鼠标移到小点上方,可查看气象台名称。

然后点击查看天气观测和预报。

如需切换地图:点击带黑十字的绿色按钮放大地图;点击带横线的绿色按钮缩小地图;或者点击绿色箭头查看邻近地区的地图。


METAR-TAF: